Terminal Aerodrome Forecast
Issued by NWS Jackson, KY

Home | Current Version | Previous Version | Graphics & Text | Print | Product List | Glossary On
Versions: 1 2 3 4 5 6 7 8 9 10 11 12 13 14 15 16 17 18 19 20 21 22 23
543
FTUS43 KJKL 222320
TAFLOZ
TAF
KLOZ 222320Z 2300/2324 04005KT P6SM BKN035 OVC040
     FM230200 03007KT P6SM VCSH OVC030
     FM230300 02007KT 5SM SHRA OVC015
     FM231200 34011KT 1SM SHRA OVC003
     FM231900 32013KT 3SM -SHRA OVC003
     FM232100 31012KT P6SM OVC008=

USA.gov is the U.S. government's official web portal to all federal, state and local government web resources and services.